Bluff City, Tennessee
Current Conditions -  °F | °C
As of 12:53 PM on Monday 26 Jan 2015 (Local Time) from KTRI Reporting Station
Overcast Overcast  
Wind Chill: 30°   Ceiling: 1600
Heat Index: 38°   Visibility: 10mi
Dew Point: 32°   Wind: 13mph
Humidity: 79%   Direction: 260°W
Pressure: 29.73"   Gusts: NA
Location:  36.47°N, 82.26°W
Report Text: KTRI 261753Z 26011KT 10SM OVC016 03/00 A2973 RMK AO2 SLP062 60007 T00330000 10044 20033 50006
Loading
Personal Weather Stations






























Interactive Weather Map New forecast layout! Learn more

10-Day Weather Forecast

Advertisements
Track Severe Weather on mobile